Time;durP1;ratioP1;P1;durP2;ratioP2;P2;SDS_P1;SDS_P2;PMS_P1;PMS_P2;Temp;Humidity;BMP_temperature;BMP_pressure;BME280_temperature;BME280_humidity;BME280_pressure;Samples;Min_cycle;Max_cycle;Signal;HPM_P1;HPM_P2
2022/05/23 00:01:23;;;;;;;2.65;2.10;;;;;;;16.67;81.68;95581.97;5058389;28;20225;-90
2022/05/23 00:03:50;;;;;;;3.95;2.60;;;;;;;16.69;81.83;95586.00;5057994;28;20204;-92
2022/05/23 00:06:19;;;;;;;2.97;2.20;;;;;;;16.96;81.19;95584.53;5058731;28;20697;-90
2022/05/23 00:08:47;;;;;;;3.65;2.13;;;;;;;16.50;82.39;95587.13;5059797;28;20205;-91
2022/05/23 00:11:16;;;;;;;2.70;2.08;;;;;;;16.36;82.76;95574.28;5057250;28;20248;-91
2022/05/23 00:13:43;;;;;;;4.35;2.20;;;;;;;16.30;82.62;95577.06;5055262;28;20585;-90
2022/05/23 00:16:11;;;;;;;5.85;2.25;;;;;;;16.34;82.88;95570.22;5056571;28;20205;-91
2022/05/23 00:18:37;;;;;;;2.78;2.00;;;;;;;16.23;82.13;95568.31;5057319;28;20201;-89
2022/05/23 00:21:04;;;;;;;2.30;1.98;;;;;;;15.97;82.60;95558.91;5056767;28;20702;-90
2022/05/23 00:23:30;;;;;;;3.38;2.63;;;;;;;16.22;81.98;95567.50;5056977;28;20216;-91
2022/05/23 00:25:57;;;;;;;2.65;2.20;;;;;;;16.19;83.41;95569.81;5057421;28;20202;-89
2022/05/23 00:28:25;;;;;;;5.20;2.40;;;;;;;16.37;83.27;95575.91;5055722;28;20588;-89
2022/05/23 00:30:51;;;;;;;3.40;2.33;;;;;;;16.09;83.45;95574.88;5055311;28;20221;-90
2022/05/23 00:36:02;;;;;;;3.90;2.33;;;;;;;15.89;84.80;95588.41;5055198;28;20208;-90
2022/05/23 00:38:28;;;;;;;6.00;2.58;;;;;;;15.98;84.58;95575.66;5059814;28;20208;-90
2022/05/23 00:43:43;;;;;;;5.50;3.00;;;;;;;16.15;85.83;95568.66;5054382;28;20204;-89
2022/05/23 00:46:12;;;;;;;5.22;3.35;;;;;;;16.28;85.76;95556.00;5059837;28;20216;-90
2022/05/23 00:48:39;;;;;;;6.03;2.78;;;;;;;16.21;84.92;95549.13;5062339;28;20209;-90
2022/05/23 00:51:11;;;;;;;4.18;2.50;;;;;;;16.10;86.24;95548.06;5056600;28;20229;-91
2022/05/23 00:53:41;;;;;;;3.70;2.13;;;;;;;16.20;85.05;95548.31;5053274;28;20205;-90
2022/05/23 00:56:10;;;;;;;3.65;2.50;;;;;;;16.11;85.41;95539.03;5055078;28;20662;-90
2022/05/23 00:58:44;;;;;;;5.57;2.35;;;;;;;15.95;84.73;95529.06;5054948;28;20205;-90
2022/05/23 01:01:15;;;;;;;4.22;2.70;;;;;;;15.83;84.50;95530.06;5053314;28;20606;-90
2022/05/23 01:03:42;;;;;;;3.65;2.20;;;;;;;15.79;83.88;95522.78;5053969;28;20224;-89
2022/05/23 01:06:09;;;;;;;3.67;2.08;;;;;;;15.60;83.97;95524.66;5054819;28;20198;-90
2022/05/23 01:08:36;;;;;;;6.55;2.13;;;;;;;15.89;83.03;95519.34;5055593;28;20223;-90
2022/05/23 01:11:03;;;;;;;3.03;2.40;;;;;;;15.77;84.61;95507.09;5055499;28;20225;-90
2022/05/23 01:13:31;;;;;;;7.45;3.03;;;;;;;15.49;88.28;95506.03;5055715;28;20560;-90
2022/05/23 01:15:59;;;;;;;4.15;2.60;;;;;;;15.46;89.29;95485.25;5055004;28;20201;-91
2022/05/23 01:18:26;;;;;;;6.07;3.17;;;;;;;15.32;90.04;95484.63;5055680;28;20193;-90
2022/05/23 01:20:57;;;;;;;3.72;2.70;;;;;;;15.56;88.92;95485.50;5054335;28;20229;-90
2022/05/23 01:23:34;;;;;;;5.05;2.63;;;;;;;15.93;87.48;95487.81;5056159;28;20216;-90
2022/05/23 01:26:03;;;;;;;6.55;2.65;;;;;;;15.84;87.83;95504.31;5054060;28;20283;-90
2022/05/23 01:28:33;;;;;;;4.32;2.90;;;;;;;15.90;88.12;95505.03;5055961;28;20290;-91
2022/05/23 01:30:59;;;;;;;2.90;2.58;;;;;;;15.69;88.75;95490.63;5056337;28;20596;-91
2022/05/23 01:33:26;;;;;;;6.38;3.05;;;;;;;15.71;88.20;95494.69;5056204;28;20681;-90
2022/05/23 01:35:52;;;;;;;4.10;2.63;;;;;;;15.67;89.13;95495.34;5056741;28;20212;-91
2022/05/23 01:38:19;;;;;;;4.20;2.65;;;;;;;15.76;88.26;95497.47;5058933;28;20205;-90
2022/05/23 01:40:45;;;;;;;4.75;3.00;;;;;;;15.84;87.52;95483.88;5059863;28;20232;-90
2022/05/23 01:43:13;;;;;;;6.88;2.70;;;;;;;15.88;87.95;95485.03;5060904;28;20197;-90
2022/05/23 01:45:40;;;;;;;6.50;3.03;;;;;;;15.98;86.75;95495.91;5058359;28;20200;-90
2022/05/23 01:48:07;;;;;;;5.22;2.85;;;;;;;16.16;86.22;95491.31;5051735;28;20690;-91
2022/05/23 01:50:35;;;;;;;5.25;2.88;;;;;;;16.03;87.15;95483.56;5057123;28;20241;-90
2022/05/23 01:53:02;;;;;;;3.63;2.80;;;;;;;15.83;87.28;95487.56;5065002;28;20207;-91
2022/05/23 01:55:29;;;;;;;10.52;3.05;;;;;;;15.87;87.07;95489.53;5068072;28;20220;-90
2022/05/23 01:57:55;;;;;;;10.38;3.17;;;;;;;15.92;86.94;95487.03;5062181;28;20573;-89
2022/05/23 02:03:08;;;;;;;4.68;2.80;;;;;;;15.99;86.85;95486.91;5060058;28;20251;-91
2022/05/23 02:05:34;;;;;;;4.55;3.00;;;;;;;15.98;84.95;95486.09;5055863;28;20211;-90
2022/05/23 02:08:02;;;;;;;3.80;2.88;;;;;;;15.86;85.30;95482.59;5054017;28;20233;-90
2022/05/23 02:10:29;;;;;;;5.05;2.90;;;;;;;15.94;85.16;95474.31;5055695;28;20253;-89
2022/05/23 02:12:59;;;;;;;7.38;3.22;;;;;;;15.89;85.61;95468.84;5057008;28;20205;-91
2022/05/23 02:15:28;;;;;;;3.70;2.60;;;;;;;15.82;86.01;95469.19;5059014;28;20213;-91
2022/05/23 02:17:55;;;;;;;4.43;2.90;;;;;;;15.76;86.20;95470.09;5059168;28;20205;-91
2022/05/23 02:20:22;;;;;;;5.80;3.10;;;;;;;15.78;86.40;95468.03;5060391;28;20677;-91
2022/05/23 02:22:48;;;;;;;6.05;3.10;;;;;;;15.66;87.24;95457.38;5059074;28;20231;-90
2022/05/23 02:25:15;;;;;;;3.50;2.80;;;;;;;15.57;86.65;95456.06;5059206;28;20561;-90
2022/05/23 02:27:41;;;;;;;5.15;2.88;;;;;;;15.48;87.15;95448.66;5055357;28;20690;-90
2022/05/23 02:30:09;;;;;;;6.63;3.10;;;;;;;15.25;89.07;95435.28;5054286;28;20209;-90
2022/05/23 02:32:37;;;;;;;4.15;2.65;;;;;;;15.39;88.75;95431.44;5057101;28;20204;-90
2022/05/23 02:35:04;;;;;;;3.58;2.63;;;;;;;15.11;87.94;95433.81;5061571;28;20208;-90
2022/05/23 02:37:30;;;;;;;5.60;3.50;;;;;;;15.28;87.58;95434.84;5057997;28;20223;-90
2022/05/23 02:39:57;;;;;;;3.03;2.60;;;;;;;15.36;87.60;95424.72;5063533;28;20220;-90
2022/05/23 02:42:23;;;;;;;3.92;2.80;;;;;;;15.28;85.98;95408.28;5064988;28;20225;-90
2022/05/23 02:44:50;;;;;;;4.05;2.92;;;;;;;15.30;87.06;95430.94;5062265;28;20207;-90
2022/05/23 02:47:16;;;;;;;4.93;2.80;;;;;;;15.19;88.03;95424.75;5058404;28;20232;-91
2022/05/23 02:49:44;;;;;;;5.10;2.80;;;;;;;15.34;87.98;95418.03;5062162;28;20204;-90
2022/05/23 02:52:11;;;;;;;4.40;3.05;;;;;;;15.17;87.53;95432.09;5063898;28;20229;-90
2022/05/23 02:54:37;;;;;;;4.40;2.42;;;;;;;15.23;87.59;95432.03;5067899;28;20213;-91
2022/05/23 02:57:04;;;;;;;4.60;2.63;;;;;;;15.21;88.06;95441.25;5064542;28;20205;-89
2022/05/23 02:59:31;;;;;;;3.80;2.90;;;;;;;15.12;87.96;95427.47;5066975;28;20288;-91
2022/05/23 03:04:44;;;;;;;4.72;3.08;;;;;;;15.39;87.04;95421.59;5065862;28;20204;-91
2022/05/23 03:07:11;;;;;;;3.70;2.65;;;;;;;15.17;88.00;95413.53;5068109;28;20213;-91
2022/05/23 03:09:37;;;;;;;7.65;2.83;;;;;;;15.11;87.97;95411.75;5057047;28;20223;-89
2022/05/23 03:12:05;;;;;;;5.10;2.60;;;;;;;14.90;90.09;95410.38;5057615;28;20217;-90
2022/05/23 03:14:31;;;;;;;4.28;2.88;;;;;;;15.03;89.01;95404.94;5053233;28;20272;-90
2022/05/23 03:17:01;;;;;;;4.65;2.80;;;;;;;14.91;88.38;95414.66;5056465;28;20212;-91
2022/05/23 03:19:27;;;;;;;4.65;2.75;;;;;;;14.73;88.85;95404.06;5057441;28;20209;-90
2022/05/23 03:27:23;;;;;;;4.20;2.88;;;;;;;14.96;89.20;95396.25;5058546;28;20232;-91
2022/05/23 03:29:51;;;;;;;7.40;3.63;;;;;;;15.04;89.22;95395.94;5059005;28;20221;-90
2022/05/23 03:32:17;;;;;;;3.88;3.00;;;;;;;15.00;89.00;95394.75;5053674;28;20229;-90
2022/05/23 03:34:44;;;;;;;8.73;3.38;;;;;;;14.88;89.90;95383.28;5053828;28;20212;-90
2022/05/23 03:37:12;;;;;;;4.95;3.13;;;;;;;15.15;88.96;95391.69;5054773;28;20578;-90
2022/05/23 03:39:39;;;;;;;3.58;2.72;;;;;;;15.19;87.59;95383.06;5054081;28;20204;-91
2022/05/23 03:42:06;;;;;;;4.43;2.78;;;;;;;15.11;86.83;95396.66;5054699;28;20222;-90
2022/05/23 03:44:34;;;;;;;5.57;2.95;;;;;;;14.81;88.88;95387.84;5055040;28;20205;-91
2022/05/23 03:47:00;;;;;;;3.63;2.72;;;;;;;15.04;88.49;95389.81;5054370;28;20205;-91
2022/05/23 03:49:27;;;;;;;4.47;3.00;;;;;;;15.06;88.81;95396.53;5055888;28;20201;-90
2022/05/23 03:51:55;;;;;;;6.28;2.80;;;;;;;15.19;89.06;95399.00;5055470;28;20232;-90
2022/05/23 03:54:23;;;;;;;3.90;2.85;;;;;;;15.24;87.75;95392.00;5053043;28;20209;-89
2022/05/23 03:56:50;;;;;;;4.13;2.92;;;;;;;15.08;88.14;95391.78;5054807;28;20292;-89
2022/05/23 03:59:16;;;;;;;3.78;2.75;;;;;;;15.00;88.29;95399.25;5057676;28;20208;-90
2022/05/23 04:01:43;;;;;;;4.55;2.90;;;;;;;15.02;88.94;95397.19;5058192;28;20239;-90
2022/05/23 04:04:09;;;;;;;3.83;2.88;;;;;;;15.07;89.08;95390.19;5056022;28;20202;-90
2022/05/23 04:06:36;;;;;;;5.43;3.10;;;;;;;15.16;89.35;95383.53;5057196;28;20205;-89
2022/05/23 04:09:03;;;;;;;8.50;3.42;;;;;;;15.01;90.25;95387.63;5058337;28;20225;-90
2022/05/23 04:11:30;;;;;;;6.75;3.00;;;;;;;15.08;89.85;95381.16;5059872;28;20236;-90
2022/05/23 04:13:57;;;;;;;8.70;3.40;;;;;;;15.09;89.94;95387.31;5058208;28;20208;-91
2022/05/23 04:16:27;;;;;;;5.63;3.35;;;;;;;15.16;90.26;95383.53;5055755;28;20212;-89
2022/05/23 04:18:54;;;;;;;7.80;3.33;;;;;;;15.14;90.57;95384.78;5055311;28;20271;-89
2022/05/23 04:21:20;;;;;;;6.72;3.17;;;;;;;15.25;90.47;95377.69;5055204;28;20275;-89
2022/05/23 04:23:47;;;;;;;9.10;3.30;;;;;;;15.37;89.70;95377.75;5054831;28;20202;-90
2022/05/23 04:26:14;;;;;;;7.60;3.60;;;;;;;15.46;88.75;95366.56;5055232;28;20757;-90
2022/05/23 04:28:42;;;;;;;5.13;2.90;;;;;;;15.57;89.83;95370.31;5054881;28;20224;-90
2022/05/23 04:31:09;;;;;;;5.20;3.10;;;;;;;15.70;89.13;95362.13;5055166;28;20225;-89
2022/05/23 04:36:20;;;;;;;6.13;3.58;;;;;;;15.69;89.00;95357.84;5054810;28;20223;-89
2022/05/23 04:38:46;;;;;;;4.82;3.33;;;;;;;15.65;89.32;95354.03;5054893;28;20584;-88
2022/05/23 04:41:13;;;;;;;8.43;3.95;;;;;;;15.70;89.35;95356.81;5054637;28;20217;-89
2022/05/23 04:43:39;;;;;;;4.43;3.35;;;;;;;15.91;88.20;95357.84;5054794;28;20205;-90
2022/05/23 04:46:07;;;;;;;5.97;3.78;;;;;;;16.17;89.33;95368.03;5053621;28;20197;-90
2022/05/23 04:51:18;;;;;;;9.70;3.50;;;;;;;16.04;91.87;95376.22;5056134;28;20232;-90
2022/05/23 04:53:44;;;;;;;5.57;3.28;;;;;;;16.33;88.51;95364.69;5056499;28;20205;-91
2022/05/23 04:56:11;;;;;;;3.83;3.08;;;;;;;16.46;89.29;95369.78;5057543;28;20650;-91
2022/05/23 04:58:37;;;;;;;8.15;3.80;;;;;;;16.49;89.04;95372.75;5057126;28;20193;-89
2022/05/23 05:01:04;;;;;;;8.23;3.70;;;;;;;16.54;86.82;95385.38;5057165;28;20224;-90
2022/05/23 05:03:32;;;;;;;6.18;4.00;;;;;;;16.52;88.55;95403.38;5054329;28;20206;-90
2022/05/23 05:05:59;;;;;;;6.72;4.13;;;;;;;16.30;89.15;95420.97;5054664;28;20245;-90
2022/05/23 05:08:25;;;;;;;4.70;3.50;;;;;;;16.27;90.10;95418.78;5053595;28;20235;-91
2022/05/23 05:10:53;;;;;;;9.35;3.92;;;;;;;16.30;92.10;95447.56;5054511;28;20593;-90
2022/05/23 05:13:20;;;;;;;10.70;3.45;;;;;;;16.27;93.30;95441.94;5054190;28;20197;-90
2022/05/23 05:15:46;;;;;;;8.05;3.88;;;;;;;16.22;93.00;95436.44;5054635;28;20638;-90
2022/05/23 05:18:13;;;;;;;6.78;4.13;;;;;;;16.18;94.95;95457.38;5053807;28;20203;-90
2022/05/23 05:20:41;;;;;;;6.60;4.10;;;;;;;16.40;94.60;95452.31;5054388;28;20701;-90
2022/05/23 05:23:08;;;;;;;7.10;4.40;;;;;;;16.27;94.09;95441.94;5054193;28;20197;-90
2022/05/23 05:25:34;;;;;;;7.60;3.72;;;;;;;16.55;92.32;95448.16;5054300;28;20638;-90
2022/05/23 05:28:01;;;;;;;8.38;4.53;;;;;;;16.63;91.86;95439.81;5054168;28;20686;-91
2022/05/23 05:30:28;;;;;;;5.63;4.13;;;;;;;16.77;93.48;95433.22;5054151;28;20229;-90
2022/05/23 05:32:59;;;;;;;6.95;4.05;;;;;;;16.95;95.77;95423.22;5054655;28;20197;-91
2022/05/23 05:35:30;;;;;;;6.50;4.22;;;;;;;17.01;96.86;95424.94;5054803;28;20251;-90
2022/05/23 05:38:02;;;;;;;6.57;4.55;;;;;;;16.93;96.03;95435.97;5054146;28;20197;-91
2022/05/23 05:40:31;;;;;;;8.90;4.43;;;;;;;15.94;100.00;95559.34;5049127;28;20728;-88
2022/05/23 05:43:02;;;;;;;5.68;4.18;;;;;;;15.59;98.96;95565.56;5047301;28;20548;-88
2022/05/23 05:45:33;;;;;;;6.05;4.05;;;;;;;15.77;96.71;95554.91;5045818;28;20685;-90
2022/05/23 05:48:00;;;;;;;7.30;3.88;;;;;;;15.62;97.23;95601.47;5045706;28;20282;-88
2022/05/23 05:50:29;;;;;;;9.88;4.40;;;;;;;15.89;96.84;95555.75;5047559;28;20236;-89
2022/05/23 05:53:01;;;;;;;10.35;4.30;;;;;;;16.17;95.10;95562.06;5046263;28;20204;-90
2022/05/23 05:55:28;;;;;;;9.43;4.25;;;;;;;16.08;95.47;95566.09;5045906;28;20330;-90
2022/05/23 05:57:55;;;;;;;7.57;4.20;;;;;;;16.02;93.28;95555.56;5049940;28;20216;-89
2022/05/23 06:00:21;;;;;;;5.82;3.70;;;;;;;16.07;94.19;95551.16;5047030;28;20201;-90
2022/05/23 06:02:49;;;;;;;5.78;3.70;;;;;;;16.26;92.11;95526.16;5050696;28;20220;-91
2022/05/23 06:05:15;;;;;;;6.57;3.80;;;;;;;16.48;92.25;95522.75;5051599;28;20630;-90
2022/05/23 06:13:14;;;;;;;5.97;3.95;;;;;;;16.70;91.36;95529.13;5028453;28;20620;-89
2022/05/23 06:15:40;;;;;;;8.18;3.95;;;;;;;16.79;90.54;95530.38;5047474;28;20585;-89
2022/05/23 06:18:07;;;;;;;7.72;4.28;;;;;;;16.97;90.70;95526.78;5047012;28;20205;-89
2022/05/23 06:20:35;;;;;;;5.78;3.63;;;;;;;16.90;89.78;95508.25;5050777;28;20220;-90
2022/05/23 06:23:02;;;;;;;8.00;4.30;;;;;;;16.95;90.32;95504.91;5050696;28;20209;-89
2022/05/23 06:25:30;;;;;;;10.18;3.80;;;;;;;16.96;92.10;95488.72;5053820;28;20666;-90
2022/05/23 06:27:56;;;;;;;9.93;4.28;;;;;;;16.65;92.84;95483.78;5055944;28;20279;-90
2022/05/23 06:30:24;;;;;;;6.22;4.47;;;;;;;16.68;94.32;95466.53;5051637;28;20643;-90
2022/05/23 06:32:51;;;;;;;7.10;3.70;;;;;;;16.93;91.70;95448.44;5051921;28;20212;-89
2022/05/23 06:35:18;;;;;;;6.78;3.88;;;;;;;16.97;91.23;95454.91;5050510;28;20200;-89
2022/05/23 06:37:45;;;;;;;6.53;4.28;;;;;;;16.73;93.34;95443.50;5051050;28;20204;-89
2022/05/23 06:40:14;;;;;;;7.00;4.05;;;;;;;16.73;94.03;95437.38;5048901;28;20193;-89
2022/05/23 06:42:42;;;;;;;7.63;4.18;;;;;;;16.65;94.45;95435.88;5048494;28;20205;-90
2022/05/23 06:45:10;;;;;;;9.35;4.90;;;;;;;16.61;94.38;95418.78;5048217;28;20205;-89
2022/05/23 06:47:36;;;;;;;7.95;4.38;;;;;;;16.65;94.84;95416.47;5048505;28;20449;-89
2022/05/23 06:50:03;;;;;;;6.72;4.45;;;;;;;16.77;93.57;95396.75;5052321;28;20236;-89
2022/05/23 06:52:30;;;;;;;5.95;4.25;;;;;;;16.96;94.61;95402.75;5049630;28;20228;-90
2022/05/23 06:54:56;;;;;;;6.93;4.28;;;;;;;17.07;93.90;95388.56;5048311;28;20238;-88
2022/05/23 06:57:23;;;;;;;5.70;3.80;;;;;;;17.07;92.87;95380.59;5048288;28;20621;-90
2022/05/23 06:59:51;;;;;;;7.10;4.00;;;;;;;17.20;93.79;95373.13;5049244;28;20219;-87
2022/05/23 07:02:17;;;;;;;5.35;3.72;;;;;;;17.00;92.53;95374.59;5046026;28;20605;-88
2022/05/23 07:12:57;;;;;;;6.63;3.90;;;;;;;17.92;89.14;95367.75;5050540;28;20272;-89
2022/05/23 07:15:26;;;;;;;6.32;3.78;;;;;;;18.30;90.08;95363.31;5051658;28;20300;-90
2022/05/23 07:17:52;;;;;;;6.55;3.80;;;;;;;18.22;87.97;95349.63;5049285;28;20205;-89
2022/05/23 07:20:19;;;;;;;6.78;3.70;;;;;;;18.33;87.21;95338.84;5050321;28;20245;-89
2022/05/23 07:22:45;;;;;;;5.38;4.13;;;;;;;18.41;86.26;95343.75;5050344;28;20279;-88
2022/05/23 07:25:13;;;;;;;5.63;3.70;;;;;;;18.68;86.51;95340.09;5052214;28;20208;-88
2022/05/23 07:27:40;;;;;;;7.25;3.80;;;;;;;18.45;85.88;95316.31;5051124;28;20292;-89
2022/05/23 07:30:08;;;;;;;5.15;3.17;;;;;;;18.37;87.48;95246.59;5048754;28;20228;-89
2022/05/23 07:32:35;;;;;;;6.68;3.97;;;;;;;18.28;89.35;95205.41;5051329;28;20216;-89
2022/05/23 07:35:02;;;;;;;7.65;3.90;;;;;;;18.06;90.64;95249.91;5052152;28;20201;-90
2022/05/23 07:37:29;;;;;;;5.90;3.60;;;;;;;17.97;88.53;95288.69;5051566;28;20650;-89
2022/05/23 07:39:56;;;;;;;6.80;3.85;;;;;;;18.07;88.33;95304.03;5054370;28;20224;-90
2022/05/23 07:42:23;;;;;;;14.88;4.25;;;;;;;18.23;88.78;95295.19;5050214;28;20256;-88
2022/05/23 07:44:50;;;;;;;8.48;4.30;;;;;;;18.67;90.94;95287.81;5051785;28;20217;-88
2022/05/23 07:47:16;;;;;;;5.72;3.92;;;;;;;18.97;88.23;95290.81;5050243;28;20204;-89
2022/05/23 07:49:47;;;;;;;6.60;3.92;;;;;;;19.36;85.81;95278.91;5052705;28;20229;-89
2022/05/23 07:52:13;;;;;;;7.10;3.92;;;;;;;19.34;83.36;95286.41;5050739;28;20228;-88
2022/05/23 08:00:32;;;;;;;6.40;3.60;;;;;;;20.05;83.52;95282.19;5052096;28;20193;-89
2022/05/23 08:02:59;;;;;;;7.80;3.58;;;;;;;19.97;81.09;95288.03;5049827;28;20201;-89
2022/05/23 08:05:28;;;;;;;6.28;3.50;;;;;;;20.52;81.68;95291.81;5053963;28;20212;-89
2022/05/23 08:07:54;;;;;;;5.75;3.58;;;;;;;20.45;78.41;95285.09;5049187;28;20224;-88
2022/05/23 08:10:21;;;;;;;5.97;3.67;;;;;;;20.68;81.04;95290.00;5051267;28;20232;-91
2022/05/23 08:12:52;;;;;;;7.22;3.78;;;;;;;21.05;79.40;95304.91;5051488;28;20197;-90
2022/05/23 08:15:19;;;;;;;6.20;3.38;;;;;;;20.86;78.70;95311.78;5053261;28;20638;-89
2022/05/23 08:17:46;;;;;;;4.75;3.35;;;;;;;21.04;77.68;95322.88;5055339;28;20209;-91
2022/05/23 08:20:13;;;;;;;5.97;3.50;;;;;;;21.21;74.66;95315.41;5055006;28;20208;-90
2022/05/23 08:22:41;;;;;;;7.35;2.90;;;;;;;21.27;76.01;95314.34;5054220;28;20209;-90
2022/05/23 08:25:09;;;;;;;4.35;3.28;;;;;;;21.12;76.66;95308.94;5054095;28;20236;-89
2022/05/23 08:27:35;;;;;;;4.55;3.25;;;;;;;20.89;76.36;95292.53;5054385;28;20733;-90
2022/05/23 08:30:02;;;;;;;6.60;3.30;;;;;;;21.02;77.43;95292.84;5055453;28;20311;-90
2022/05/23 08:32:29;;;;;;;5.72;3.13;;;;;;;20.88;78.75;95291.72;5054410;28;20645;-90
2022/05/23 08:34:55;;;;;;;7.60;3.15;;;;;;;20.71;78.31;95292.97;5053687;28;20293;-90
2022/05/23 08:37:22;;;;;;;5.65;3.33;;;;;;;20.68;78.54;95295.38;5053664;28;20212;-89
2022/05/23 08:39:50;;;;;;;5.45;2.92;;;;;;;20.89;77.78;95287.97;5055221;28;20201;-89
2022/05/23 08:42:29;;;;;;;5.13;2.80;;;;;;;21.16;77.53;95272.50;5054177;28;20682;-90
2022/05/23 08:45:08;;;;;;;5.57;3.25;;;;;;;21.11;77.67;95269.03;5054332;28;20243;-89
2022/05/23 08:47:39;;;;;;;4.03;2.95;;;;;;;21.31;79.53;95269.06;5054752;28;20193;-89
2022/05/23 08:50:13;;;;;;;5.30;3.30;;;;;;;21.63;77.12;95263.22;5055565;28;20232;-89
2022/05/23 08:52:46;;;;;;;6.68;3.42;;;;;;;21.84;75.89;95269.38;5053998;28;20204;-90
2022/05/23 08:55:19;;;;;;;4.82;3.20;;;;;;;22.02;75.17;95266.16;5055627;28;20244;-91
2022/05/23 08:57:54;;;;;;;7.47;3.30;;;;;;;22.35;73.85;95269.06;5055379;28;20193;-90
2022/05/23 09:00:27;;;;;;;7.00;2.83;;;;;;;22.50;71.47;95267.13;5055310;28;20209;-91
2022/05/23 09:03:00;;;;;;;6.18;2.53;;;;;;;22.80;71.46;95277.78;5055605;28;20205;-90
2022/05/23 09:05:32;;;;;;;5.53;2.88;;;;;;;23.00;68.45;95277.69;5035080;28;20649;-91
2022/05/23 09:08:02;;;;;;;10.35;3.53;;;;;;;22.72;69.42;95279.16;5049597;28;20272;-91
2022/05/23 09:10:35;;;;;;;10.93;2.97;;;;;;;22.80;66.71;95281.25;5058624;28;20229;-90
2022/05/23 09:13:01;;;;;;;6.18;3.22;;;;;;;22.60;66.44;95267.09;5057603;28;20209;-91
2022/05/23 09:15:28;;;;;;;7.47;2.70;;;;;;;22.78;66.96;95271.88;5054667;28;20205;-91
2022/05/23 09:17:59;;;;;;;7.10;2.65;;;;;;;22.99;67.54;95262.69;5056390;28;20561;-89
2022/05/23 09:20:34;;;;;;;4.78;3.00;;;;;;;23.17;66.27;95248.59;5057287;28;20202;-90
2022/05/23 09:23:06;;;;;;;4.50;2.97;;;;;;;23.22;66.07;95248.53;5053481;28;20204;-90
2022/05/23 09:25:34;;;;;;;8.23;2.90;;;;;;;23.15;65.29;95240.78;5056242;28;20229;-90
2022/05/23 09:28:26;;;;;;;4.18;2.70;;;;;;;23.80;66.54;95233.06;5057542;28;20213;-90
2022/05/23 09:30:58;;;;;;;7.60;2.88;;;;;;;23.86;65.78;95215.03;5051339;28;20689;-90
2022/05/23 09:33:27;;;;;;;5.80;2.70;;;;;;;23.71;68.78;95217.84;5057516;28;20205;-90
2022/05/23 09:35:56;;;;;;;5.70;2.92;;;;;;;24.05;63.10;95224.78;5057104;28;20209;-91
2022/05/23 09:38:26;;;;;;;8.82;3.00;;;;;;;24.14;62.55;95223.06;5056021;28;20567;-91
2022/05/23 09:40:55;;;;;;;4.32;2.80;;;;;;;24.25;61.96;95219.16;5053435;28;20221;-89
2022/05/23 09:49:13;;;;;;;5.22;2.55;;;;;;;24.76;62.23;95211.06;5056200;28;20247;-91
2022/05/23 09:51:54;;;;;;;4.93;2.88;;;;;;;25.11;61.26;95204.41;5055568;28;20217;-90
2022/05/23 09:54:26;;;;;;;4.30;2.78;;;;;;;24.82;60.95;95199.13;5050767;28;20204;-88
2022/05/23 09:56:55;;;;;;;7.70;2.85;;;;;;;25.06;62.23;95197.19;5057158;28;20692;-89
2022/05/23 09:59:27;;;;;;;8.35;2.70;;;;;;;25.07;63.71;95193.41;5053336;28;20212;-90
2022/05/23 10:01:54;;;;;;;6.40;3.08;;;;;;;24.42;61.13;95198.03;5054352;28;20217;-89
2022/05/23 10:04:26;;;;;;;7.13;2.95;;;;;;;24.72;59.92;95185.00;5052170;28;20224;-88
2022/05/23 10:06:53;;;;;;;6.75;2.83;;;;;;;24.53;61.08;95183.34;5052373;28;20209;-89
2022/05/23 10:09:28;;;;;;;5.25;2.80;;;;;;;24.94;62.02;95177.94;5055833;28;20229;-89
2022/05/23 10:11:59;;;;;;;5.63;2.80;;;;;;;25.19;59.88;95194.59;5058878;28;20308;-89
2022/05/23 10:14:37;;;;;;;5.22;2.88;;;;;;;25.26;59.86;95194.22;5052310;28;20189;-89
2022/05/23 10:17:05;;;;;;;4.55;3.00;;;;;;;25.01;61.25;95185.66;5054989;28;20192;-89
2022/05/23 10:19:34;;;;;;;4.20;2.42;;;;;;;25.08;62.79;95186.94;5053761;28;20300;-89
2022/05/23 10:22:15;;;;;;;5.40;2.63;;;;;;;25.65;63.46;95183.88;5053144;28;20382;-89
2022/05/23 10:24:50;;;;;;;7.93;2.92;;;;;;;25.73;59.41;95184.03;5054106;28;20243;-90
2022/05/23 10:27:25;;;;;;;4.03;2.80;;;;;;;25.74;59.66;95179.44;5053555;28;20220;-89
2022/05/23 10:29:56;;;;;;;6.55;3.17;;;;;;;26.07;60.03;95182.63;5053661;28;20217;-90
2022/05/23 10:32:30;;;;;;;5.22;2.45;;;;;;;26.75;58.26;95194.28;5055226;28;20241;-89
2022/05/23 10:35:05;;;;;;;5.80;2.97;;;;;;;26.50;54.86;95190.19;5056967;28;20231;-89
2022/05/23 10:37:36;;;;;;;5.65;2.80;;;;;;;26.20;56.19;95186.44;5055403;28;20211;-89
2022/05/23 10:42:58;;;;;;;5.05;2.80;;;;;;;25.91;58.27;95189.38;5054870;28;20310;-89
2022/05/23 10:45:32;;;;;;;6.20;2.75;;;;;;;26.28;57.90;95174.94;5056292;28;20205;-89
2022/05/23 10:48:38;;;;;;;4.45;2.88;;;;;;;26.45;55.58;95178.66;5060346;28;20201;-90
2022/05/23 10:51:12;;;;;;;7.95;3.28;;;;;;;26.42;54.92;95170.38;5055275;28;20225;-89
2022/05/23 10:53:50;;;;;;;8.25;3.35;;;;;;;26.76;55.26;95171.53;5057379;28;20196;-89
2022/05/23 10:56:25;;;;;;;9.30;3.25;;;;;;;27.80;55.33;95177.25;5054914;28;20196;-88
2022/05/23 10:58:58;;;;;;;6.30;2.83;;;;;;;27.75;53.14;95174.69;5055354;28;20370;-90
2022/05/23 11:01:41;;;;;;;9.13;2.83;;;;;;;27.80;53.22;95177.25;5054403;28;20227;-89
2022/05/23 11:04:23;;;;;;;9.80;2.95;;;;;;;27.37;57.43;95168.00;5055620;28;20204;-89
2022/05/23 11:07:03;;;;;;;7.32;3.00;;;;;;;27.18;59.61;95174.69;5053381;28;20200;-90
2022/05/23 11:09:37;;;;;;;5.65;2.90;;;;;;;27.00;55.63;95177.53;5057414;28;20733;-89
2022/05/23 11:12:16;;;;;;;5.13;2.78;;;;;;;26.91;55.84;95168.50;5057273;28;20229;-90
2022/05/23 11:14:57;;;;;;;6.22;2.90;;;;;;;27.33;55.87;95177.03;5057684;28;20213;-89
2022/05/23 11:17:32;;;;;;;8.20;3.17;;;;;;;27.09;56.37;95180.00;5052254;28;20204;-89
2022/05/23 11:20:10;;;;;;;5.03;3.08;;;;;;;26.70;56.06;95167.34;5052137;28;20207;-89
2022/05/23 11:22:42;;;;;;;6.78;2.83;;;;;;;26.93;57.54;95164.38;5055449;28;20205;-88
2022/05/23 11:25:21;;;;;;;4.80;2.42;;;;;;;26.93;59.89;95172.50;5050570;28;20267;-90
2022/05/23 11:33:42;;;;;;;9.95;3.53;;;;;;;26.18;60.11;95180.53;5050204;28;20212;-89
2022/05/23 11:36:10;;;;;;;6.63;3.35;;;;;;;26.17;60.18;95181.63;5050724;28;20194;-88
2022/05/23 11:38:45;;;;;;;6.82;3.53;;;;;;;26.16;57.89;95204.34;5051354;28;20216;-90
2022/05/23 11:41:28;;;;;;;8.07;3.53;;;;;;;25.78;59.29;95212.84;5051769;28;20227;-89
2022/05/23 11:43:55;;;;;;;10.85;3.85;;;;;;;25.36;59.47;95226.44;5051755;28;20673;-89
2022/05/23 11:46:28;;;;;;;10.65;3.90;;;;;;;25.48;60.04;95216.00;5051815;28;20213;-90
2022/05/23 11:48:58;;;;;;;8.98;3.60;;;;;;;25.24;61.67;95213.38;5048380;28;20208;-88
2022/05/23 11:51:41;;;;;;;10.70;4.45;;;;;;;24.96;61.76;95237.75;5050445;28;20245;-91
2022/05/23 11:54:37;;;;;;;7.38;4.15;;;;;;;24.85;63.69;95247.06;5052156;28;20207;-89
2022/05/23 11:57:15;;;;;;;7.35;4.10;;;;;;;24.60;66.50;95260.84;5050879;28;20204;-90
2022/05/23 12:00:19;;;;;;;9.60;3.63;;;;;;;24.28;66.57;95264.41;5051554;28;20231;-90
2022/05/23 12:03:05;;;;;;;6.20;4.20;;;;;;;24.08;67.40;95248.44;5035596;28;20874;-91
2022/05/23 12:05:33;;;;;;;8.85;4.30;;;;;;;24.12;71.25;95258.34;5048876;28;20572;-90
2022/05/23 12:08:04;;;;;;;6.85;4.00;;;;;;;23.88;73.56;95267.47;5050876;28;20216;-86
2022/05/23 12:10:55;;;;;;;12.27;4.70;;;;;;;23.94;74.75;95277.91;5048715;28;20232;-90
2022/05/23 12:13:40;;;;;;;7.18;4.22;;;;;;;23.67;78.26;95263.28;5046195;28;20294;-90
2022/05/23 12:16:46;;;;;;;7.63;4.88;;;;;;;23.72;79.51;95227.50;5047460;28;20233;-89
2022/05/23 12:19:28;;;;;;;8.02;5.13;;;;;;;23.40;76.91;95205.69;5050629;28;20205;-89
2022/05/23 12:22:16;;;;;;;12.40;5.28;;;;;;;23.20;79.25;95207.72;5052068;28;20227;-89
2022/05/23 12:25:01;;;;;;;7.55;4.65;;;;;;;23.03;80.09;95194.66;5051552;28;20212;-89
2022/05/23 12:27:32;;;;;;;8.63;4.05;;;;;;;23.02;78.65;95168.84;5050840;28;20216;-89
2022/05/23 12:30:35;;;;;;;4.78;2.88;;;;;;;23.28;74.03;95170.31;5049627;28;20224;-88
2022/05/23 12:33:12;;;;;;;6.28;2.33;;;;;;;23.64;69.38;95140.13;5051366;28;20212;-88
2022/05/23 12:35:58;;;;;;;9.60;2.88;;;;;;;23.91;72.07;95131.56;5053217;28;20201;-88
2022/05/23 12:38:44;;;;;;;6.07;3.03;;;;;;;24.19;69.62;95128.78;5051552;28;20197;-88
2022/05/23 12:41:19;;;;;;;8.30;2.70;;;;;;;24.71;69.80;95132.19;5051605;28;20251;-88
2022/05/23 12:44:11;;;;;;;7.25;2.67;;;;;;;24.69;67.87;95135.19;5050936;28;20212;-89